createdAt,value
2022-12-25T00:01:49.780Z,88.75
2022-12-25T00:04:18.745Z,88.60
2022-12-25T00:06:47.352Z,88.46
2022-12-25T00:09:14.970Z,88.43
2022-12-25T00:11:42.576Z,88.71
2022-12-25T00:14:10.599Z,88.67
2022-12-25T00:16:38.579Z,88.89
2022-12-25T00:19:06.319Z,89.34
2022-12-25T00:21:35.289Z,89.29
2022-12-25T00:24:03.894Z,89.38
2022-12-25T00:26:31.882Z,89.43
2022-12-25T00:29:00.152Z,89.11
2022-12-25T00:31:28.482Z,89.24
2022-12-25T00:33:56.792Z,89.42
2022-12-25T00:36:24.799Z,89.31
2022-12-25T00:38:54.336Z,89.57
2022-12-25T00:41:44.149Z,90.23
2022-12-25T00:44:14.220Z,89.97
2022-12-25T00:46:42.922Z,90.00
2022-12-25T00:49:11.279Z,90.52
2022-12-25T00:51:39.001Z,89.96
2022-12-25T00:54:08.239Z,89.72
2022-12-25T00:56:36.022Z,89.74
2022-12-25T00:59:04.582Z,89.75
2022-12-25T01:01:34.145Z,89.68
2022-12-25T01:04:02.599Z,89.57
2022-12-25T01:06:30.703Z,90.18
2022-12-25T01:09:12.761Z,90.14
2022-12-25T01:11:41.773Z,90.01
2022-12-25T01:14:09.946Z,90.23
2022-12-25T01:16:37.903Z,90.19
2022-12-25T01:19:06.103Z,89.83
2022-12-25T01:21:34.106Z,89.65
2022-12-25T01:24:01.955Z,90.38
2022-12-25T01:26:29.616Z,90.01
2022-12-25T01:28:59.135Z,90.41
2022-12-25T01:31:27.028Z,90.09
2022-12-25T01:33:55.447Z,90.20
2022-12-25T01:36:25.497Z,90.10
2022-12-25T01:38:54.925Z,90.67
2022-12-25T01:41:24.851Z,90.10
2022-12-25T01:44:03.948Z,89.99
2022-12-25T01:46:32.591Z,89.94
2022-12-25T01:49:04.610Z,90.24
2022-12-25T01:51:36.374Z,89.62
2022-12-25T01:54:09.954Z,90.05
2022-12-25T01:56:39.027Z,89.96
2022-12-25T01:59:10.398Z,90.05
2022-12-25T02:01:38.204Z,89.59
2022-12-25T02:04:14.195Z,89.81
2022-12-25T02:06:42.733Z,90.23
2022-12-25T02:09:11.397Z,90.11
2022-12-25T02:11:57.425Z,89.60
2022-12-25T02:14:28.574Z,89.84
2022-12-25T02:17:06.943Z,90.26
2022-12-25T02:20:14.046Z,90.31
2022-12-25T02:22:57.534Z,90.22
2022-12-25T02:25:43.041Z,89.45
2022-12-25T02:28:17.812Z,89.97
2022-12-25T02:30:51.266Z,89.54
2022-12-25T02:33:47.439Z,89.72
2022-12-25T02:36:21.444Z,90.09
2022-12-25T02:39:27.234Z,90.04
2022-12-25T02:41:58.132Z,90.22
2022-12-25T02:44:47.955Z,89.76
2022-12-25T02:47:34.807Z,89.89
2022-12-25T02:50:22.059Z,89.80
2022-12-25T02:53:10.375Z,90.16
2022-12-25T02:55:59.763Z,90.05
2022-12-25T02:58:46.438Z,89.79
2022-12-25T03:01:37.548Z,90.08
2022-12-25T03:04:28.122Z,90.00
2022-12-25T03:07:05.146Z,89.09
2022-12-25T03:09:57.913Z,89.21
2022-12-25T03:12:35.544Z,89.53
2022-12-25T03:15:21.656Z,89.35
2022-12-25T03:17:50.617Z,89.83
2022-12-25T03:20:36.950Z,89.60
2022-12-25T03:23:30.807Z,90.02
2022-12-25T03:26:16.403Z,89.96
2022-12-25T03:28:43.971Z,90.05
2022-12-25T03:31:20.635Z,89.77
2022-12-25T03:34:27.303Z,89.54
2022-12-25T03:37:17.350Z,89.61
2022-12-25T03:40:06.503Z,89.77
2022-12-25T03:42:56.611Z,89.52
2022-12-25T03:45:48.396Z,90.14
2022-12-25T03:48:35.405Z,89.89
2022-12-25T03:51:29.023Z,89.86
2022-12-25T03:54:18.428Z,90.02
2022-12-25T03:57:05.886Z,90.11
2022-12-25T03:59:51.459Z,90.52
2022-12-25T04:02:37.122Z,90.20
2022-12-25T04:05:22.817Z,90.14
2022-12-25T04:08:09.481Z,89.95
2022-12-25T04:10:54.878Z,90.23
2022-12-25T04:13:42.630Z,90.37
2022-12-25T04:16:28.156Z,90.45
2022-12-25T04:19:13.667Z,90.31
2022-12-25T04:21:58.995Z,90.09
2022-12-25T04:24:45.667Z,90.46
2022-12-25T04:27:32.028Z,90.34
2022-12-25T04:30:17.162Z,90.08
2022-12-25T04:33:02.881Z,90.25
2022-12-25T04:35:48.223Z,89.96
2022-12-25T04:38:16.057Z,90.02
2022-12-25T04:40:44.999Z,90.05
2022-12-25T04:43:13.369Z,90.39
2022-12-25T04:45:41.046Z,90.02
2022-12-25T04:48:09.363Z,90.26
2022-12-25T04:50:37.016Z,89.94
2022-12-25T04:53:04.987Z,89.99
2022-12-25T04:55:32.567Z,90.10
2022-12-25T04:58:01.568Z,90.15
2022-12-25T05:00:29.171Z,89.44
2022-12-25T05:02:58.585Z,89.87
2022-12-25T05:05:26.647Z,90.27
2022-12-25T05:07:54.357Z,90.06
2022-12-25T05:10:21.954Z,90.56
2022-12-25T05:12:49.820Z,90.37
2022-12-25T05:15:18.917Z,90.89
2022-12-25T05:17:46.865Z,90.55
2022-12-25T05:20:14.851Z,90.38
2022-12-25T05:22:43.339Z,90.58
2022-12-25T05:25:10.962Z,90.51
2022-12-25T05:27:39.259Z,90.59
2022-12-25T05:30:08.193Z,90.66
2022-12-25T05:32:37.159Z,90.33
2022-12-25T05:35:05.028Z,90.68
2022-12-25T05:37:33.305Z,90.20
2022-12-25T05:40:00.894Z,90.66
2022-12-25T05:42:28.543Z,90.08
2022-12-25T05:44:56.140Z,90.45
2022-12-25T05:47:24.349Z,90.24
2022-12-25T05:49:53.585Z,90.61
2022-12-25T05:52:21.462Z,91.14
2022-12-25T05:54:49.366Z,90.82
2022-12-25T05:57:17.039Z,91.52
2022-12-25T05:59:44.646Z,91.20
2022-12-25T06:02:12.349Z,90.78
2022-12-25T06:04:40.015Z,90.89
2022-12-25T06:07:09.298Z,91.29
2022-12-25T06:09:36.892Z,90.83
2022-12-25T06:12:05.555Z,90.61
2022-12-25T06:14:33.285Z,90.72
2022-12-25T06:17:00.934Z,90.80
2022-12-25T06:19:29.227Z,90.91
2022-12-25T06:21:57.180Z,91.17
2022-12-25T06:24:26.649Z,90.63
2022-12-25T06:26:54.294Z,90.77
2022-12-25T06:29:22.256Z,90.81
2022-12-25T06:31:50.462Z,90.99
2022-12-25T06:34:18.418Z,90.56
2022-12-25T06:36:46.002Z,90.42
2022-12-25T06:39:17.278Z,90.27
2022-12-25T06:41:46.302Z,90.51
2022-12-25T06:44:14.385Z,90.26
2022-12-25T06:46:41.978Z,90.43
2022-12-25T06:49:11.535Z,90.59
2022-12-25T06:51:39.101Z,90.75
2022-12-25T06:54:07.965Z,90.27
2022-12-25T06:56:36.023Z,90.17
2022-12-25T06:59:07.577Z,90.30
2022-12-25T07:01:37.458Z,90.31
2022-12-25T07:04:07.866Z,90.47
2022-12-25T07:06:35.563Z,90.68
2022-12-25T07:09:03.797Z,90.83
2022-12-25T07:11:32.003Z,90.64
2022-12-25T07:13:59.779Z,90.59
2022-12-25T07:16:28.935Z,91.29
2022-12-25T07:18:56.978Z,91.09
2022-12-25T07:21:24.650Z,91.06
2022-12-25T07:23:52.635Z,91.24
2022-12-25T07:26:20.913Z,91.27
2022-12-25T07:28:49.411Z,91.24
2022-12-25T07:31:18.710Z,91.37
2022-12-25T07:33:48.375Z,91.74
2022-12-25T07:36:16.288Z,91.48
2022-12-25T07:38:44.627Z,91.01
2022-12-25T07:41:13.853Z,91.02
2022-12-25T07:43:42.409Z,90.80
2022-12-25T07:46:10.926Z,90.85
2022-12-25T07:48:40.660Z,90.71
2022-12-25T07:51:13.467Z,90.58
2022-12-25T07:53:42.421Z,90.54
2022-12-25T07:56:13.759Z,90.74
2022-12-25T07:58:42.223Z,90.41
2022-12-25T08:01:13.853Z,90.17
2022-12-25T08:03:41.772Z,90.05
2022-12-25T08:06:12.963Z,89.93
2022-12-25T08:08:42.126Z,90.49
2022-12-25T08:11:11.585Z,90.28
2022-12-25T08:13:39.845Z,90.18
2022-12-25T08:16:11.156Z,89.54
2022-12-25T08:18:39.858Z,89.96
2022-12-25T08:21:09.757Z,89.41
2022-12-25T08:23:40.442Z,89.18
2022-12-25T08:26:10.213Z,87.28
2022-12-25T08:28:38.103Z,88.24
2022-12-25T08:31:10.752Z,88.13
2022-12-25T08:33:38.910Z,88.73
2022-12-25T08:36:10.210Z,88.56
2022-12-25T08:38:40.185Z,88.50
2022-12-25T08:41:08.571Z,88.33
2022-12-25T08:43:36.709Z,90.63
2022-12-25T08:46:04.877Z,88.23
2022-12-25T08:48:32.869Z,80.97
2022-12-25T08:51:01.202Z,75.82
2022-12-25T08:53:28.824Z,72.56
2022-12-25T08:56:04.723Z,67.67
2022-12-25T08:58:32.711Z,62.99
2022-12-25T09:01:00.868Z,60.43
2022-12-25T09:03:28.778Z,57.99
2022-12-25T09:05:57.208Z,56.39
2022-12-25T09:08:24.798Z,55.15
2022-12-25T09:10:52.404Z,54.26
2022-12-25T09:13:21.370Z,53.61
2022-12-25T09:15:49.028Z,53.46
2022-12-25T09:18:16.693Z,53.54
2022-12-25T09:20:44.582Z,53.78
2022-12-25T09:23:14.395Z,54.00
2022-12-25T09:28:33.048Z,56.17
2022-12-25T09:31:00.714Z,57.96
2022-12-25T09:33:28.886Z,58.30
2022-12-25T09:35:59.193Z,58.30
2022-12-25T09:38:27.491Z,56.01
2022-12-25T09:41:04.523Z,53.93
2022-12-25T09:43:40.763Z,53.40
2022-12-25T09:46:15.996Z,52.85
2022-12-25T09:48:48.472Z,52.60
2022-12-25T09:51:18.811Z,52.94
2022-12-25T09:53:53.928Z,52.55
2022-12-25T09:56:27.010Z,51.27
2022-12-25T09:58:56.052Z,51.33
2022-12-25T10:01:35.262Z,51.46
2022-12-25T10:04:19.405Z,51.22
2022-12-25T10:06:56.924Z,50.39
2022-12-25T10:09:43.835Z,49.66
2022-12-25T10:12:27.607Z,49.30
2022-12-25T10:15:15.289Z,50.33
2022-12-25T10:17:58.114Z,50.57
2022-12-25T10:20:41.389Z,51.39
2022-12-25T10:23:16.864Z,50.22
2022-12-25T10:25:47.347Z,50.45
2022-12-25T10:28:20.708Z,50.12
2022-12-25T10:30:53.444Z,49.64
2022-12-25T10:33:21.651Z,49.15
2022-12-25T10:35:50.759Z,47.16
2022-12-25T10:38:20.864Z,47.38
2022-12-25T10:41:02.171Z,47.40
2022-12-25T10:43:37.489Z,47.63
2022-12-25T10:46:13.033Z,48.49
2022-12-25T10:48:44.343Z,48.27
2022-12-25T10:51:12.762Z,48.01
2022-12-25T10:53:42.334Z,46.68
2022-12-25T10:56:18.838Z,47.19
2022-12-25T10:58:46.613Z,46.63
2022-12-25T11:01:16.473Z,47.16
2022-12-25T11:03:48.241Z,46.69
2022-12-25T11:06:25.259Z,45.96
2022-12-25T11:08:55.897Z,45.45
2022-12-25T11:11:25.312Z,45.45
2022-12-25T11:13:55.077Z,45.74
2022-12-25T11:16:33.023Z,45.01
2022-12-25T11:19:01.524Z,46.13
2022-12-25T11:21:31.350Z,47.11
2022-12-25T11:24:02.085Z,47.34
2022-12-25T11:26:33.752Z,47.90
2022-12-25T11:29:01.682Z,48.57
2022-12-25T11:31:38.403Z,50.16
2022-12-25T11:34:09.476Z,51.17
2022-12-25T11:36:45.691Z,52.73
2022-12-25T11:39:23.603Z,54.23
2022-12-25T11:41:55.089Z,55.33
2022-12-25T11:44:40.126Z,55.29
2022-12-25T11:47:19.588Z,55.85
2022-12-25T11:49:58.624Z,55.30
2022-12-25T11:52:32.981Z,54.61
2022-12-25T11:55:06.479Z,53.99
2022-12-25T11:57:38.627Z,53.86
2022-12-25T12:00:10.315Z,53.70
2022-12-25T12:02:45.543Z,53.71
2022-12-25T12:05:22.389Z,53.96
2022-12-25T12:07:58.199Z,54.39
2022-12-25T12:10:43.868Z,55.20
2022-12-25T12:13:26.630Z,56.25
2022-12-25T12:15:54.544Z,56.57
2022-12-25T12:18:30.262Z,58.09
2022-12-25T12:21:04.831Z,58.38
2022-12-25T12:23:36.972Z,58.07
2022-12-25T12:26:05.525Z,57.45
2022-12-25T12:28:45.475Z,56.22
2022-12-25T12:31:13.664Z,56.15
2022-12-25T12:33:49.272Z,55.71
2022-12-25T12:36:17.144Z,55.54
2022-12-25T12:38:45.408Z,55.10
2022-12-25T12:41:14.844Z,56.33
2022-12-25T12:43:46.109Z,57.44
2022-12-25T12:46:26.090Z,59.34
2022-12-25T12:49:11.151Z,60.53
2022-12-25T12:51:39.560Z,62.01
2022-12-25T12:54:20.838Z,62.67
2022-12-25T12:56:59.464Z,63.86
2022-12-25T12:59:36.170Z,64.84
2022-12-25T13:02:19.283Z,65.48
2022-12-25T13:05:00.383Z,66.40
2022-12-25T13:07:44.648Z,67.30
2022-12-25T13:10:23.847Z,68.06
2022-12-25T13:12:55.526Z,68.75
2022-12-25T13:15:25.678Z,70.13
2022-12-25T13:17:53.680Z,70.59
2022-12-25T13:20:27.453Z,69.26
2022-12-25T13:22:55.995Z,67.79
2022-12-25T13:25:25.017Z,65.91
2022-12-25T13:27:57.811Z,64.98
2022-12-25T13:30:26.461Z,65.01
2022-12-25T13:32:54.614Z,65.83
2022-12-25T13:35:24.636Z,66.93
2022-12-25T13:37:52.456Z,67.86
2022-12-25T13:40:24.720Z,68.50
2022-12-25T13:42:57.820Z,68.64
2022-12-25T13:45:29.032Z,68.11
2022-12-25T13:47:57.239Z,67.83
2022-12-25T13:50:29.295Z,66.99
2022-12-25T13:52:59.141Z,66.50
2022-12-25T13:55:28.830Z,66.59
2022-12-25T13:57:59.062Z,66.88
2022-12-25T14:00:34.171Z,66.83
2022-12-25T14:03:02.274Z,66.86
2022-12-25T14:05:41.606Z,65.86
2022-12-25T14:08:15.571Z,64.99
2022-12-25T14:10:46.814Z,65.09
2022-12-25T14:13:16.431Z,65.73
2022-12-25T14:15:46.562Z,66.87
2022-12-25T14:18:15.986Z,67.75
2022-12-25T14:20:59.751Z,68.35
2022-12-25T14:23:28.064Z,68.82
2022-12-25T14:25:56.311Z,69.32
2022-12-25T14:28:32.279Z,69.70
2022-12-25T14:31:01.296Z,70.14
2022-12-25T14:33:33.667Z,70.81
2022-12-25T14:36:03.882Z,70.55
2022-12-25T14:38:34.919Z,70.56
2022-12-25T14:41:04.741Z,70.99
2022-12-25T14:43:34.493Z,71.33
2022-12-25T14:46:06.429Z,71.70
2022-12-25T14:48:34.322Z,71.75
2022-12-25T14:51:07.747Z,72.12
2022-12-25T14:53:40.500Z,72.42
2022-12-25T14:56:10.361Z,72.44
2022-12-25T14:58:44.203Z,72.18
2022-12-25T15:01:21.911Z,72.62
2022-12-25T15:03:49.922Z,72.88
2022-12-25T15:06:25.103Z,72.89
2022-12-25T15:08:57.339Z,73.05
2022-12-25T15:11:25.752Z,73.37
2022-12-25T15:13:53.381Z,73.67
2022-12-25T15:16:24.713Z,73.99
2022-12-25T15:18:53.421Z,74.37
2022-12-25T15:21:27.390Z,74.88
2022-12-25T15:23:55.507Z,75.27
2022-12-25T15:26:24.264Z,75.95
2022-12-25T15:28:52.062Z,76.76
2022-12-25T15:31:23.739Z,77.54
2022-12-25T15:33:51.754Z,78.14
2022-12-25T15:36:19.440Z,78.49
2022-12-25T15:38:48.620Z,78.68
2022-12-25T15:41:34.227Z,78.94
2022-12-25T15:44:02.042Z,78.94
2022-12-25T15:46:30.433Z,78.70
2022-12-25T15:48:58.255Z,78.44
2022-12-25T15:51:26.336Z,77.14
2022-12-25T15:53:55.284Z,78.36
2022-12-25T15:56:24.415Z,79.10
2022-12-25T15:58:52.047Z,79.33
2022-12-25T16:01:21.661Z,79.68
2022-12-25T16:03:49.464Z,80.14
2022-12-25T16:06:19.250Z,80.76
2022-12-25T16:08:46.948Z,81.35
2022-12-25T16:11:16.220Z,81.24
2022-12-25T16:13:43.797Z,81.44
2022-12-25T16:16:11.764Z,81.35
2022-12-25T16:18:45.116Z,80.70
2022-12-25T16:21:17.525Z,81.50
2022-12-25T16:23:45.636Z,82.58
2022-12-25T16:26:13.981Z,82.81
2022-12-25T16:28:43.145Z,82.70
2022-12-25T16:31:11.940Z,82.90
2022-12-25T16:33:39.591Z,82.98
2022-12-25T16:36:08.770Z,82.91
2022-12-25T16:38:36.707Z,83.44
2022-12-25T16:41:04.710Z,83.56
2022-12-25T16:43:32.292Z,83.15
2022-12-25T16:46:01.880Z,82.81
2022-12-25T16:48:30.095Z,82.91
2022-12-25T16:50:58.332Z,83.23
2022-12-25T16:53:25.925Z,83.27
2022-12-25T16:55:53.731Z,82.96
2022-12-25T16:58:21.329Z,82.72
2022-12-25T17:00:49.910Z,82.57
2022-12-25T17:03:18.912Z,82.98
2022-12-25T17:05:46.678Z,83.00
2022-12-25T17:08:15.433Z,83.19
2022-12-25T17:10:43.020Z,83.73
2022-12-25T17:13:11.315Z,84.74
2022-12-25T17:15:39.001Z,85.76
2022-12-25T17:18:09.421Z,84.97
2022-12-25T17:20:38.763Z,82.86
2022-12-25T17:23:07.064Z,82.30
2022-12-25T17:25:34.723Z,81.64
2022-12-25T17:28:03.131Z,84.96
2022-12-25T17:30:31.102Z,83.77
2022-12-25T17:32:58.885Z,85.01
2022-12-25T17:35:26.486Z,89.38
2022-12-25T17:37:56.010Z,88.97
2022-12-25T17:40:23.912Z,86.20
2022-12-25T17:42:52.793Z,84.32
2022-12-25T17:45:20.442Z,83.42
2022-12-25T17:47:48.676Z,83.57
2022-12-25T17:50:16.340Z,83.98
2022-12-25T17:52:44.316Z,86.68
2022-12-25T17:55:13.289Z,84.63
2022-12-25T17:57:41.493Z,89.87
2022-12-25T18:00:09.888Z,90.14
2022-12-25T18:02:38.276Z,89.50
2022-12-25T18:05:07.023Z,88.54
2022-12-25T18:07:34.891Z,87.45
2022-12-25T18:10:02.908Z,86.57
2022-12-25T18:12:32.217Z,85.97
2022-12-25T18:14:59.831Z,85.48
2022-12-25T18:17:28.979Z,85.69
2022-12-25T18:19:56.666Z,85.75
2022-12-25T18:22:25.095Z,85.21
2022-12-25T18:24:52.852Z,84.82
2022-12-25T18:27:21.109Z,83.79
2022-12-25T18:29:50.689Z,83.98
2022-12-25T18:32:22.085Z,83.91
2022-12-25T18:34:54.360Z,84.01
2022-12-25T18:37:22.343Z,83.91
2022-12-25T18:39:50.378Z,83.36
2022-12-25T18:42:36.417Z,82.86
2022-12-25T18:45:06.843Z,83.03
2022-12-25T18:47:35.055Z,83.01
2022-12-25T18:50:02.866Z,82.70
2022-12-25T18:52:47.929Z,82.88
2022-12-25T18:55:18.466Z,83.06
2022-12-25T18:57:46.122Z,83.00
2022-12-25T19:00:16.299Z,82.72
2022-12-25T19:02:44.186Z,82.20
2022-12-25T19:05:12.326Z,82.08
2022-12-25T19:07:39.927Z,81.87
2022-12-25T19:10:10.135Z,81.35
2022-12-25T19:12:38.010Z,80.69
2022-12-25T19:15:06.632Z,80.36
2022-12-25T19:17:35.636Z,80.26
2022-12-25T19:20:03.508Z,79.94
2022-12-25T19:22:31.148Z,79.28
2022-12-25T19:24:59.166Z,79.15
2022-12-25T19:27:26.879Z,78.45
2022-12-25T19:29:54.782Z,78.40
2022-12-25T19:32:22.365Z,78.52
2022-12-25T19:34:51.833Z,77.69
2022-12-25T19:37:19.433Z,77.67
2022-12-25T19:39:47.603Z,77.48
2022-12-25T19:42:18.755Z,77.21
2022-12-25T19:44:46.682Z,76.91
2022-12-25T19:47:14.474Z,76.74
2022-12-25T19:49:43.954Z,76.43
2022-12-25T19:52:14.880Z,76.29
2022-12-25T19:54:43.343Z,75.56
2022-12-25T19:57:10.931Z,75.40
2022-12-25T19:59:38.551Z,74.92
2022-12-25T20:02:06.392Z,75.44
2022-12-25T20:04:34.485Z,75.28
2022-12-25T20:07:02.126Z,75.29
2022-12-25T20:09:32.952Z,75.70
2022-12-25T20:12:00.563Z,75.41
2022-12-25T20:14:28.801Z,75.32
2022-12-25T20:16:56.527Z,74.78
2022-12-25T20:19:24.868Z,74.56
2022-12-25T20:21:54.075Z,74.75
2022-12-25T20:24:21.995Z,74.44
2022-12-25T20:26:56.972Z,73.94
2022-12-25T20:29:26.916Z,73.56
2022-12-25T20:31:54.527Z,73.43
2022-12-25T20:34:22.733Z,73.07
2022-12-25T20:36:50.323Z,73.18
2022-12-25T20:39:18.393Z,72.94
2022-12-25T20:41:47.466Z,73.26
2022-12-25T20:44:16.682Z,72.87
2022-12-25T20:46:45.944Z,72.94
2022-12-25T20:49:15.215Z,73.23
2022-12-25T20:51:42.821Z,72.78
2022-12-25T20:54:12.643Z,73.01
2022-12-25T20:56:40.290Z,72.92
2022-12-25T20:59:07.945Z,72.97
2022-12-25T21:01:36.939Z,72.93
2022-12-25T21:04:04.748Z,72.93
2022-12-25T21:06:32.532Z,72.48
2022-12-25T21:09:00.716Z,72.61
2022-12-25T21:11:30.781Z,72.77
2022-12-25T21:13:59.090Z,73.29
2022-12-25T21:16:28.588Z,72.92
2022-12-25T21:18:57.591Z,72.84
2022-12-25T21:21:25.869Z,72.81
2022-12-25T21:23:56.831Z,72.60
2022-12-25T21:26:27.739Z,72.68
2022-12-25T21:28:57.857Z,72.85
2022-12-25T21:31:26.634Z,73.08
2022-12-25T21:33:54.957Z,73.24
2022-12-25T21:36:27.337Z,73.39
2022-12-25T21:38:57.894Z,73.49
2022-12-25T21:41:27.309Z,73.82
2022-12-25T21:43:56.177Z,73.75
2022-12-25T21:46:24.367Z,74.13
2022-12-25T21:48:52.959Z,74.17
2022-12-25T21:51:40.541Z,74.52
2022-12-25T21:54:09.978Z,74.76
2022-12-25T21:56:43.922Z,74.49
2022-12-25T21:59:15.210Z,74.51
2022-12-25T22:01:43.683Z,74.52
2022-12-25T22:04:11.764Z,74.97
2022-12-25T22:06:57.067Z,74.75
2022-12-25T22:09:26.102Z,74.72
2022-12-25T22:12:11.727Z,74.71
2022-12-25T22:14:54.754Z,74.85
2022-12-25T22:17:43.266Z,74.77
2022-12-25T22:20:13.531Z,74.72
2022-12-25T22:22:41.411Z,74.76
2022-12-25T22:25:10.824Z,74.87
2022-12-25T22:27:39.526Z,74.62
2022-12-25T22:30:10.188Z,74.55
2022-12-25T22:32:38.325Z,74.92
2022-12-25T22:35:07.080Z,75.15
2022-12-25T22:37:35.877Z,75.23
2022-12-25T22:40:04.009Z,75.26
2022-12-25T22:42:33.916Z,75.87
2022-12-25T22:45:01.569Z,75.82
2022-12-25T22:47:29.240Z,75.99
2022-12-25T22:49:56.884Z,75.75
2022-12-25T22:52:24.811Z,75.79
2022-12-25T22:54:52.501Z,75.71
2022-12-25T22:57:20.109Z,75.86
2022-12-25T22:59:49.064Z,75.78
2022-12-25T23:02:17.063Z,75.76
2022-12-25T23:04:44.907Z,75.68
2022-12-25T23:07:14.478Z,75.78
2022-12-25T23:09:42.851Z,75.63
2022-12-25T23:12:31.277Z,74.99
2022-12-25T23:14:59.371Z,75.13
2022-12-25T23:17:45.492Z,75.17
2022-12-25T23:20:32.879Z,74.96
2022-12-25T23:23:19.969Z,74.68
2022-12-25T23:26:05.441Z,74.51
2022-12-25T23:28:51.275Z,74.42
2022-12-25T23:31:23.767Z,74.41
2022-12-25T23:33:51.421Z,74.63
2022-12-25T23:36:19.077Z,74.55
2022-12-25T23:38:47.032Z,74.99
2022-12-25T23:41:14.628Z,74.78
2022-12-25T23:43:42.829Z,75.37
2022-12-25T23:46:10.495Z,75.24
2022-12-25T23:48:40.593Z,75.06
2022-12-25T23:51:08.793Z,75.44
2022-12-25T23:53:37.230Z,75.43
2022-12-25T23:56:05.650Z,75.39
2022-12-25T23:58:35.008Z,75.37
